Tropical Cyclones
[Index]
Main Index Home Page Stock Weather Photos Extreme Storms Discussion Storm News and Storm Chasing Reports Tropical Cyclones / Hurricanes / Typhoons Weather Data and Links Wild Fires / Bushfires Weather Observation Techniques Weather Picture Catalogue Tornado Pictures and Reports Stock Video Footage and DVDs for sale
Season 1963-1964 Tropical Cyclone HARRIET Track Map
Season 1963-1964 Summaries: [BoM-AU] [JTWC-AU] [JTWC-SIO] [JTWC-SPAC] [JTWC-SH]
<<- Previous TC | JTWC 1963-1964 Season | Next TC ->>

click for intensity scale information  Lat/long Grid: Show Hide

 Date Labels: Show Hide

Joint Typhoon Warning Centre Cyclone Data

Name: HARRIET
Number: 524 / 6422

04 Mar 1964 06:00 UTC to 17 Mar 1964 06:00 UTC

    date/time    lat    long     hPa   cat  kts
1964-03-04 06   13.5    63.7                              
1964-03-04 12   14.1    63.1                              
1964-03-04 18   14.6    62.3                              
1964-03-05 00   15.1    61.3                              
1964-03-05 06   15.6    60.3                              
1964-03-05 12   16.2    59.2                              
1964-03-05 18   16.8    58.0                              
1964-03-06 00   17.3    56.6                              
1964-03-06 06   17.6    55.2                              
1964-03-06 12   17.8    54.3                              
1964-03-06 18   17.7    53.4                              
1964-03-07 00   17.5    52.4                              
1964-03-07 06   17.2    51.3                              
1964-03-07 12   16.8    50.1                              
1964-03-07 18   16.4    48.8                              
1964-03-08 00   16.3    47.3                              
1964-03-08 06   16.4    46.0                              
1964-03-08 12   16.8    45.4                              
1964-03-08 18   17.2    45.0                              
1964-03-09 00   17.3    44.4                              
1964-03-09 06   17.4    43.8                              
1964-03-09 12   17.4    43.2                              
1964-03-09 18   17.4    42.5                              
1964-03-10 00   17.3    41.8                              
1964-03-10 06   17.2    41.1                              
1964-03-10 12   17.4    40.4                              
1964-03-10 18   17.7    39.8                              
1964-03-11 00   18.0    39.4                              
1964-03-11 06   18.6    39.0                              
1964-03-11 12   19.5    38.6                              
1964-03-11 18   20.5    38.2                              
1964-03-12 00   21.5    37.9                              
1964-03-12 06   22.5    37.7                              
1964-03-12 12   23.4    37.7                              
1964-03-12 18   24.0    38.1                              
1964-03-13 00   24.5    38.8                              
1964-03-13 06   25.0    39.8                              
1964-03-13 12   25.5    40.8                              
1964-03-13 18   25.9    42.0                              
1964-03-14 00   26.3    43.4                              
1964-03-14 06   26.7    44.7                              
1964-03-14 12   27.2    45.8                              
1964-03-14 18   27.7    47.0                              
1964-03-15 00   28.3    48.1                              
1964-03-15 06   29.0    49.3                              
1964-03-15 12   29.7    50.7                              
1964-03-15 18   30.5    52.3                              
1964-03-16 00   31.1    53.6                              
1964-03-16 06   31.8    54.9                              
1964-03-16 12   32.9    56.6                              
1964-03-16 18   34.3    58.4                              
1964-03-17 00   35.7    60.3                              
1964-03-17 06   37.2    62.3                              
Winds are 1-min average.

Tropical cyclone tracks developed by Michael Bath using data from the Joint Typhoon Warning Centre Best Tracks and Google Maps.


[Australian Severe Weather index] [Copyright Notice] [Email Contacts] [Search This Site] [Privacy Policy]
Document: tropical_cyclone_harriet.htm Updated: 18 September 2016